Terminal Aerodrome Forecast
Issued by NWS Glasgow, MT

Home | Current Version | Previous Version | Text Only | Print | Product List | Glossary On
Versions: 1 2 3 4 5 6 7 8 9 10 11 12 13 14 15
000
FTUS45 KGGW 240800 AAA
TAFGGW
TAF AMD
KGGW 240827Z 2408/2506 VRB05KT P6SM VCSH OVC100
     FM241100 27010KT P6SM BKN090
     FM241800 28018KT P6SM SCT100
     FM250100 30007KT P6SM SCT100=

USA.gov is the U.S. government's official web portal to all federal, state and local government web resources and services.